createdAt,value
2023-08-08T00:03:30.298Z,1.65
2023-08-08T00:07:32.116Z,1.10
2023-08-08T00:11:34.372Z,1.20
2023-08-08T00:15:36.396Z,1.23
2023-08-08T00:19:38.125Z,1.25
2023-08-08T00:23:39.812Z,1.10
2023-08-08T00:27:44.785Z,1.60
2023-08-08T00:31:46.470Z,1.15
2023-08-08T00:35:48.161Z,1.48
2023-08-08T00:39:49.937Z,1.37
2023-08-08T00:43:51.655Z,1.35
2023-08-08T00:47:54.196Z,1.52
2023-08-08T00:51:56.004Z,1.45
2023-08-08T00:55:59.011Z,1.60
2023-08-08T01:00:00.708Z,1.50
2023-08-08T01:04:02.512Z,1.80
2023-08-08T01:08:06.923Z,1.60
2023-08-08T01:12:11.982Z,1.70
2023-08-08T01:16:14.438Z,2.00
2023-08-08T01:20:17.836Z,2.03
2023-08-08T01:24:23.254Z,2.08
2023-08-08T01:28:25.326Z,2.28
2023-08-08T01:32:27.093Z,1.80
2023-08-08T01:37:05.382Z,2.00
2023-08-08T01:41:08.528Z,2.10
2023-08-08T01:45:11.117Z,2.10
2023-08-08T01:49:12.773Z,2.33
2023-08-08T01:53:14.542Z,2.00
2023-08-08T01:57:16.211Z,2.45
2023-08-08T02:01:17.997Z,2.62
2023-08-08T02:05:19.859Z,1.83
2023-08-08T02:09:22.063Z,2.25
2023-08-08T02:13:24.407Z,2.33
2023-08-08T02:17:27.383Z,2.25
2023-08-08T02:21:29.210Z,2.03
2023-08-08T02:25:31.894Z,2.20
2023-08-08T02:29:33.610Z,2.28
2023-08-08T02:33:35.296Z,2.47
2023-08-08T02:37:37.069Z,2.03
2023-08-08T02:41:38.728Z,2.50
2023-08-08T02:45:40.628Z,1.98
2023-08-08T02:49:42.372Z,2.25
2023-08-08T02:53:44.134Z,2.22
2023-08-08T02:57:45.795Z,2.08
2023-08-08T03:01:48.460Z,2.03
2023-08-08T03:05:50.286Z,2.08
2023-08-08T03:09:52.071Z,1.90
2023-08-08T03:13:53.769Z,2.10
2023-08-08T03:17:56.704Z,2.15
2023-08-08T03:21:58.769Z,1.90
2023-08-08T03:26:00.998Z,2.15
2023-08-08T03:30:03.149Z,2.00
2023-08-08T03:34:05.480Z,2.28
2023-08-08T03:38:07.595Z,1.90
2023-08-08T03:42:09.617Z,2.62
2023-08-08T03:46:12.638Z,1.73
2023-08-08T03:50:14.446Z,2.05
2023-08-08T03:54:16.340Z,1.80
2023-08-08T03:58:19.010Z,2.03
2023-08-08T04:02:20.719Z,2.30
2023-08-08T04:06:22.447Z,2.35
2023-08-08T04:10:24.180Z,2.00
2023-08-08T04:14:25.955Z,2.30
2023-08-08T04:18:27.668Z,2.22
2023-08-08T04:22:29.402Z,2.53
2023-08-08T04:26:31.082Z,2.30
2023-08-08T04:30:32.828Z,3.25
2023-08-08T04:34:34.661Z,3.42
2023-08-08T04:38:36.331Z,3.67
2023-08-08T04:42:38.105Z,3.20
2023-08-08T04:46:40.058Z,4.37
2023-08-08T04:50:42.191Z,3.97
2023-08-08T04:54:45.141Z,3.97
2023-08-08T04:58:46.878Z,3.85
2023-08-08T05:02:48.648Z,4.50
2023-08-08T05:06:50.416Z,4.32
2023-08-08T05:10:52.131Z,4.62
2023-08-08T05:14:53.854Z,4.32
2023-08-08T05:18:55.632Z,3.95
2023-08-08T05:22:57.365Z,4.60
2023-08-08T05:26:59.079Z,4.18
2023-08-08T05:31:00.810Z,3.90
2023-08-08T05:35:05.233Z,4.78
2023-08-08T05:39:08.007Z,4.12
2023-08-08T05:43:09.995Z,3.92
2023-08-08T05:47:12.182Z,4.62
2023-08-08T05:51:13.942Z,4.78
2023-08-08T05:55:15.648Z,5.05
2023-08-08T05:59:17.410Z,5.12
2023-08-08T06:03:19.167Z,5.68
2023-08-08T06:07:20.965Z,5.80
2023-08-08T06:11:23.019Z,5.45
2023-08-08T06:15:24.668Z,6.68
2023-08-08T06:19:26.415Z,5.57
2023-08-08T06:23:28.145Z,6.45
2023-08-08T06:27:29.862Z,7.22
2023-08-08T06:31:31.853Z,7.25
2023-08-08T06:35:33.658Z,6.53
2023-08-08T06:39:35.971Z,6.25
2023-08-08T06:43:37.686Z,6.53
2023-08-08T06:47:39.532Z,6.15
2023-08-08T06:51:41.283Z,6.53
2023-08-08T06:55:42.934Z,5.43
2023-08-08T06:59:44.707Z,5.50
2023-08-08T07:03:47.742Z,5.15
2023-08-08T07:07:51.456Z,6.35
2023-08-08T07:11:53.292Z,5.43
2023-08-08T07:15:55.111Z,6.03
2023-08-08T07:19:57.643Z,5.15
2023-08-08T07:23:59.344Z,4.85
2023-08-08T07:28:01.028Z,4.90
2023-08-08T07:32:05.079Z,5.12
2023-08-08T07:36:06.799Z,4.40
2023-08-08T07:40:21.373Z,4.37
2023-08-08T07:44:23.108Z,4.28
2023-08-08T07:48:24.801Z,4.45
2023-08-08T07:52:26.507Z,4.05
2023-08-08T07:56:28.216Z,4.40
2023-08-08T08:00:29.933Z,3.45
2023-08-08T08:04:31.605Z,3.60
2023-08-08T08:08:33.650Z,3.50
2023-08-08T08:12:36.027Z,3.35
2023-08-08T08:16:37.976Z,3.60
2023-08-08T08:20:40.193Z,3.20
2023-08-08T08:24:41.884Z,3.10
2023-08-08T08:28:43.615Z,2.83
2023-08-08T08:32:45.696Z,2.67
2023-08-08T08:36:47.435Z,2.83
2023-08-08T08:40:49.932Z,2.53
2023-08-08T08:44:53.553Z,2.62
2023-08-08T08:48:57.556Z,3.05
2023-08-08T08:53:01.074Z,2.42
2023-08-08T08:57:02.825Z,2.45
2023-08-08T09:01:04.866Z,2.58
2023-08-08T09:05:07.201Z,2.30
2023-08-08T09:09:16.168Z,2.10
2023-08-08T09:13:18.747Z,2.35
2023-08-08T09:17:22.472Z,2.40
2023-08-08T09:21:25.678Z,2.90
2023-08-08T09:25:27.703Z,3.03
2023-08-08T09:29:29.448Z,3.33
2023-08-08T09:33:31.624Z,2.80
2023-08-08T09:37:33.340Z,2.70
2023-08-08T09:41:35.081Z,2.70
2023-08-08T09:45:38.843Z,2.15
2023-08-08T09:49:40.785Z,2.67
2023-08-08T09:53:43.606Z,2.00
2023-08-08T09:57:46.310Z,2.40
2023-08-08T10:01:48.939Z,2.00
2023-08-08T10:05:50.755Z,2.08
2023-08-08T10:09:53.173Z,2.03
2023-08-08T10:13:55.187Z,2.47
2023-08-08T10:17:58.274Z,2.37
2023-08-08T10:22:07.490Z,2.03
2023-08-08T10:26:20.357Z,1.80
2023-08-08T10:30:22.163Z,2.10
2023-08-08T10:34:38.614Z,2.58
2023-08-08T10:38:51.222Z,2.00
2023-08-08T10:42:53.358Z,1.80
2023-08-08T10:46:57.737Z,1.62
2023-08-08T10:51:01.120Z,1.98
2023-08-08T10:55:04.176Z,1.95
2023-08-08T10:59:21.912Z,1.90
2023-08-08T11:03:24.955Z,2.45
2023-08-08T11:07:29.339Z,2.47
2023-08-08T11:11:37.953Z,2.80
2023-08-08T11:15:40.386Z,2.70
2023-08-08T11:19:42.379Z,2.40
2023-08-08T11:23:47.306Z,2.40
2023-08-08T11:27:53.502Z,2.37
2023-08-08T11:31:55.389Z,2.67
2023-08-08T11:35:57.698Z,2.30
2023-08-08T11:39:59.813Z,2.28
2023-08-08T11:44:03.034Z,2.25
2023-08-08T11:48:05.235Z,2.42
2023-08-08T11:52:08.506Z,2.10
2023-08-08T11:56:10.231Z,1.98
2023-08-08T12:00:15.816Z,1.77
2023-08-08T12:04:21.160Z,2.62
2023-08-08T12:08:24.801Z,2.30
2023-08-08T12:12:28.189Z,2.75
2023-08-08T12:16:34.698Z,3.15
2023-08-08T12:20:36.705Z,3.30
2023-08-08T12:24:38.543Z,2.80
2023-08-08T12:28:40.780Z,2.58
2023-08-08T12:32:42.641Z,2.45
2023-08-08T12:36:44.338Z,2.22
2023-08-08T12:40:46.118Z,2.05
2023-08-08T12:44:48.018Z,2.08
2023-08-08T12:48:49.855Z,2.10
2023-08-08T12:52:51.694Z,1.98
2023-08-08T12:56:53.341Z,2.00
2023-08-08T13:00:55.134Z,1.90
2023-08-08T13:04:56.964Z,2.22
2023-08-08T13:08:58.684Z,2.03
2023-08-08T13:13:00.363Z,1.90
2023-08-08T13:17:02.690Z,1.87
2023-08-08T13:21:06.299Z,1.90
2023-08-08T13:25:08.880Z,2.00
2023-08-08T13:29:13.150Z,2.00
2023-08-08T13:33:14.903Z,1.62
2023-08-08T13:37:17.067Z,1.95
2023-08-08T13:41:18.736Z,2.12
2023-08-08T13:45:21.890Z,1.60
2023-08-08T13:49:27.164Z,1.42
2023-08-08T13:53:29.592Z,1.95
2023-08-08T13:57:31.284Z,2.15
2023-08-08T14:01:33.040Z,1.83
2023-08-08T14:05:34.876Z,2.20
2023-08-08T14:09:36.662Z,1.83
2023-08-08T14:13:39.433Z,1.80
2023-08-08T14:17:41.205Z,2.35
2023-08-08T14:21:42.881Z,2.50
2023-08-08T14:25:44.553Z,2.10
2023-08-08T14:29:46.264Z,2.25
2023-08-08T14:33:48.273Z,2.12
2023-08-08T14:37:50.129Z,1.95
2023-08-08T14:41:51.940Z,1.80
2023-08-08T14:45:53.732Z,2.10
2023-08-08T14:49:55.558Z,2.20
2023-08-08T14:53:57.270Z,1.62
2023-08-08T14:57:58.943Z,1.30
2023-08-08T15:02:00.991Z,1.02
2023-08-08T15:06:02.723Z,1.15
2023-08-08T15:10:04.726Z,1.10
2023-08-08T15:14:06.466Z,0.90
2023-08-08T15:18:08.262Z,1.10
2023-08-08T15:22:09.993Z,1.15
2023-08-08T15:26:11.762Z,0.90
2023-08-08T15:30:13.483Z,0.70
2023-08-08T15:34:15.144Z,0.80
2023-08-08T15:38:16.930Z,0.80
2023-08-08T15:42:18.906Z,0.85
2023-08-08T15:46:20.680Z,2.20
2023-08-08T15:50:22.428Z,1.30
2023-08-08T15:54:24.903Z,1.17
2023-08-08T15:58:27.188Z,1.90
2023-08-08T16:02:28.921Z,1.00
2023-08-08T16:06:30.758Z,0.90
2023-08-08T16:10:32.607Z,1.40
2023-08-08T16:14:34.286Z,1.23
2023-08-08T16:18:35.944Z,1.20
2023-08-08T16:22:37.623Z,1.17
2023-08-08T16:26:39.260Z,0.98
2023-08-08T16:30:41.099Z,1.30
2023-08-08T16:34:42.893Z,1.17
2023-08-08T16:38:44.606Z,0.90
2023-08-08T16:42:46.283Z,1.10
2023-08-08T16:46:47.997Z,1.20
2023-08-08T16:50:50.880Z,1.30
2023-08-08T16:54:54.503Z,1.10
2023-08-08T16:58:56.630Z,1.20
2023-08-08T17:02:58.818Z,1.27
2023-08-08T17:07:00.611Z,1.27
2023-08-08T17:11:02.452Z,1.50
2023-08-08T17:15:04.884Z,1.10
2023-08-08T17:19:07.661Z,1.40
2023-08-08T17:23:09.786Z,1.70
2023-08-08T17:27:11.893Z,2.33
2023-08-08T17:31:13.623Z,2.10
2023-08-08T17:35:15.397Z,2.42
2023-08-08T17:39:17.244Z,2.70
2023-08-08T17:43:18.976Z,2.70
2023-08-08T17:47:20.764Z,2.45
2023-08-08T17:51:22.447Z,2.72
2023-08-08T17:55:24.787Z,2.65
2023-08-08T17:59:29.829Z,2.47
2023-08-08T18:03:32.963Z,2.40
2023-08-08T18:07:34.822Z,2.95
2023-08-08T18:11:39.387Z,3.15
2023-08-08T18:15:41.177Z,2.70
2023-08-08T18:19:42.850Z,3.20
2023-08-08T18:23:44.545Z,3.58
2023-08-08T18:27:46.444Z,2.65
2023-08-08T18:31:48.185Z,3.30
2023-08-08T18:35:49.863Z,3.00
2023-08-08T18:39:51.667Z,3.17
2023-08-08T18:43:53.475Z,3.37
2023-08-08T18:47:55.210Z,3.67
2023-08-08T18:51:57.065Z,3.20
2023-08-08T18:55:58.870Z,3.22
2023-08-08T19:00:00.866Z,3.00
2023-08-08T19:04:02.882Z,2.95
2023-08-08T19:08:04.916Z,3.22
2023-08-08T19:12:06.740Z,3.42
2023-08-08T19:16:08.493Z,3.05
2023-08-08T19:20:10.479Z,3.30
2023-08-08T19:24:12.207Z,3.35
2023-08-08T19:28:13.939Z,3.22
2023-08-08T19:32:15.744Z,3.45
2023-08-08T19:36:17.476Z,3.55
2023-08-08T19:40:20.070Z,4.10
2023-08-08T19:44:21.940Z,3.85
2023-08-08T19:48:23.661Z,3.67
2023-08-08T19:52:25.440Z,4.32
2023-08-08T19:56:27.590Z,4.00
2023-08-08T20:00:29.753Z,3.78
2023-08-08T20:04:31.658Z,4.45
2023-08-08T20:08:33.776Z,4.50
2023-08-08T20:12:35.521Z,5.47
2023-08-08T20:16:37.753Z,4.65
2023-08-08T20:20:39.682Z,6.03
2023-08-08T20:24:41.381Z,4.90
2023-08-08T20:28:43.170Z,5.53
2023-08-08T20:32:46.006Z,4.70
2023-08-08T20:36:47.767Z,4.70
2023-08-08T20:40:51.660Z,5.15
2023-08-08T20:44:53.447Z,5.25
2023-08-08T20:48:56.665Z,5.50
2023-08-08T20:52:59.224Z,5.03
2023-08-08T20:57:01.272Z,4.85
2023-08-08T21:01:03.233Z,4.45
2023-08-08T21:05:06.168Z,4.50
2023-08-08T21:09:08.230Z,4.43
2023-08-08T21:13:09.955Z,4.53
2023-08-08T21:17:11.681Z,4.72
2023-08-08T21:21:13.882Z,4.45
2023-08-08T21:25:15.833Z,4.00
2023-08-08T21:29:17.576Z,4.07
2023-08-08T21:33:19.266Z,3.35
2023-08-08T21:37:20.931Z,3.28
2023-08-08T21:41:22.601Z,3.20
2023-08-08T21:45:24.609Z,2.87
2023-08-08T21:49:26.309Z,2.80
2023-08-08T21:53:28.095Z,2.45
2023-08-08T21:57:29.885Z,2.28
2023-08-08T22:01:31.647Z,2.60
2023-08-08T22:05:33.397Z,2.33
2023-08-08T22:09:35.203Z,2.50
2023-08-08T22:13:37.050Z,2.42
2023-08-08T22:17:39.462Z,2.40
2023-08-08T22:21:42.152Z,2.30
2023-08-08T22:25:43.896Z,2.45
2023-08-08T22:29:45.557Z,1.90
2023-08-08T22:33:47.270Z,2.78
2023-08-08T22:37:49.062Z,2.42
2023-08-08T22:41:50.773Z,2.25
2023-08-08T22:45:52.495Z,2.28
2023-08-08T22:49:54.198Z,2.40
2023-08-08T22:53:55.943Z,2.78
2023-08-08T22:57:57.684Z,2.65
2023-08-08T23:02:01.068Z,2.50
2023-08-08T23:06:03.060Z,2.87
2023-08-08T23:10:05.275Z,3.00
2023-08-08T23:14:06.991Z,3.30
2023-08-08T23:18:08.747Z,3.58
2023-08-08T23:22:10.538Z,3.83
2023-08-08T23:26:12.759Z,3.85
2023-08-08T23:30:14.508Z,4.43
2023-08-08T23:34:16.182Z,4.03
2023-08-08T23:38:17.910Z,4.22
2023-08-08T23:42:20.202Z,4.18
2023-08-08T23:46:22.013Z,4.62
2023-08-08T23:50:23.793Z,4.82
2023-08-08T23:54:25.495Z,5.20
2023-08-08T23:58:27.808Z,5.15
